createdAt,value
2024-02-19T00:00:07.044Z,9.00
2024-02-19T00:02:34.921Z,9.00
2024-02-19T00:05:03.125Z,9.00
2024-02-19T00:07:31.019Z,9.00
2024-02-19T00:09:58.920Z,9.00
2024-02-19T00:12:28.208Z,9.00
2024-02-19T00:14:56.616Z,9.00
2024-02-19T00:17:24.636Z,8.90
2024-02-19T00:19:52.861Z,8.90
2024-02-19T00:22:20.898Z,9.00
2024-02-19T00:24:48.835Z,9.00
2024-02-19T00:27:18.183Z,9.00
2024-02-19T00:29:47.334Z,9.00
2024-02-19T00:32:15.256Z,9.00
2024-02-19T00:34:44.593Z,9.00
2024-02-19T00:37:12.666Z,8.90
2024-02-19T00:39:40.585Z,8.80
2024-02-19T00:42:08.613Z,8.80
2024-02-19T00:44:36.754Z,8.80
2024-02-19T00:47:05.995Z,8.80
2024-02-19T00:49:33.973Z,8.80
2024-02-19T00:52:02.478Z,8.90
2024-02-19T00:54:30.324Z,8.90
2024-02-19T00:56:58.218Z,8.90
2024-02-19T00:59:26.456Z,9.00
2024-02-19T01:01:54.408Z,9.00
2024-02-19T01:04:23.931Z,9.00
2024-02-19T01:06:51.847Z,9.00
2024-02-19T01:09:19.676Z,9.00
2024-02-19T01:11:47.513Z,9.00
2024-02-19T01:14:15.318Z,9.00
2024-02-19T01:16:43.183Z,9.00
2024-02-19T01:19:11.075Z,9.10
2024-02-19T01:21:40.466Z,9.00
2024-02-19T01:24:09.158Z,9.10
2024-02-19T01:26:36.998Z,9.00
2024-02-19T01:29:04.850Z,9.00
2024-02-19T01:31:32.969Z,9.00
2024-02-19T01:34:00.945Z,9.00
2024-02-19T01:36:28.870Z,9.00
2024-02-19T01:38:58.058Z,9.00
2024-02-19T01:41:26.445Z,9.00
2024-02-19T01:43:54.334Z,8.90
2024-02-19T01:46:22.637Z,8.90
2024-02-19T01:48:50.844Z,8.90
2024-02-19T01:51:20.620Z,8.90
2024-02-19T01:53:49.407Z,8.90
2024-02-19T01:56:19.174Z,9.00
2024-02-19T01:58:47.490Z,8.90
2024-02-19T02:01:17.167Z,9.00
2024-02-19T02:03:45.353Z,8.90
2024-02-19T02:06:13.253Z,9.00
2024-02-19T02:08:41.484Z,8.90
2024-02-19T02:11:09.505Z,9.00
2024-02-19T02:13:38.724Z,9.00
2024-02-19T02:16:08.246Z,9.00
2024-02-19T02:18:36.862Z,9.00
2024-02-19T02:21:05.023Z,9.00
2024-02-19T02:23:33.796Z,9.00
2024-02-19T02:26:01.727Z,9.00
2024-02-19T02:28:31.134Z,9.00
2024-02-19T02:30:58.979Z,9.00
2024-02-19T02:33:27.325Z,9.00
2024-02-19T02:35:55.325Z,9.00
2024-02-19T02:38:23.164Z,9.00
2024-02-19T02:40:51.018Z,9.00
2024-02-19T02:43:18.861Z,9.00
2024-02-19T02:45:48.602Z,9.00
2024-02-19T02:48:17.233Z,8.90
2024-02-19T02:50:45.069Z,8.90
2024-02-19T02:53:12.931Z,9.00
2024-02-19T02:55:40.720Z,8.90
2024-02-19T02:58:08.570Z,9.00
2024-02-19T03:00:36.756Z,9.00
2024-02-19T03:03:06.405Z,8.90
2024-02-19T03:05:34.232Z,8.90
2024-02-19T03:08:02.184Z,8.90
2024-02-19T03:10:30.277Z,8.90
2024-02-19T03:12:58.142Z,8.90
2024-02-19T03:15:25.980Z,8.90
2024-02-19T03:17:53.810Z,8.90
2024-02-19T03:20:24.692Z,8.90
2024-02-19T03:22:53.208Z,8.90
2024-02-19T03:25:21.183Z,8.90
2024-02-19T03:27:52.899Z,8.90
2024-02-19T03:30:21.477Z,9.00
2024-02-19T03:32:49.391Z,8.90
2024-02-19T03:35:17.276Z,9.00
2024-02-19T03:37:47.482Z,9.00
2024-02-19T03:40:15.529Z,9.00
2024-02-19T03:42:44.007Z,9.00
2024-02-19T03:45:11.959Z,9.00
2024-02-19T03:47:39.837Z,9.00
2024-02-19T03:50:08.111Z,8.90
2024-02-19T03:52:36.425Z,8.90
2024-02-19T03:55:06.377Z,8.90
2024-02-19T03:57:34.248Z,9.00
2024-02-19T04:00:05.944Z,9.00
2024-02-19T04:02:33.879Z,9.00
2024-02-19T04:05:01.816Z,8.90
2024-02-19T04:07:29.756Z,8.90
2024-02-19T04:09:57.597Z,9.00
2024-02-19T04:12:26.784Z,8.90
2024-02-19T04:14:54.622Z,8.90
2024-02-19T04:17:22.453Z,9.00
2024-02-19T04:19:50.358Z,9.00
2024-02-19T04:22:18.333Z,9.00
2024-02-19T04:24:46.287Z,9.00
2024-02-19T04:27:15.524Z,9.10
2024-02-19T04:29:44.702Z,9.00
2024-02-19T04:32:12.519Z,9.00
2024-02-19T04:34:41.105Z,9.00
2024-02-19T04:37:09.853Z,9.10
2024-02-19T04:39:37.943Z,9.10
2024-02-19T04:42:06.365Z,9.10
2024-02-19T04:44:34.186Z,9.10
2024-02-19T04:47:03.395Z,9.10
2024-02-19T04:49:31.345Z,9.10
2024-02-19T04:51:59.494Z,9.10
2024-02-19T04:54:28.959Z,9.10
2024-02-19T04:56:56.774Z,9.10
2024-02-19T04:59:24.618Z,9.10
2024-02-19T05:01:54.659Z,9.10
2024-02-19T05:04:25.845Z,9.10
2024-02-19T05:06:54.436Z,9.10
2024-02-19T05:09:22.325Z,9.10
2024-02-19T05:11:50.638Z,9.00
2024-02-19T05:14:18.489Z,9.10
2024-02-19T05:16:47.058Z,9.00
2024-02-19T05:19:14.952Z,9.10
2024-02-19T05:21:44.787Z,9.00
2024-02-19T05:24:14.965Z,9.00
2024-02-19T05:26:42.815Z,9.10
2024-02-19T05:29:10.980Z,9.10
2024-02-19T05:31:40.848Z,9.20
2024-02-19T05:34:09.471Z,9.10
2024-02-19T05:36:37.510Z,9.10
2024-02-19T05:39:11.532Z,9.10
2024-02-19T05:41:39.768Z,9.10
2024-02-19T05:44:07.660Z,9.10
2024-02-19T05:46:35.709Z,9.10
2024-02-19T05:49:03.748Z,9.10
2024-02-19T05:51:31.675Z,9.20
2024-02-19T05:53:59.586Z,9.10
2024-02-19T05:56:30.222Z,9.00
2024-02-19T05:58:58.071Z,9.00
2024-02-19T06:01:26.110Z,9.00
2024-02-19T06:03:54.045Z,9.00
2024-02-19T06:06:22.011Z,9.00
2024-02-19T06:08:49.854Z,9.00
2024-02-19T06:11:17.744Z,9.00
2024-02-19T06:13:46.918Z,9.00
2024-02-19T06:16:14.750Z,9.00
2024-02-19T06:18:42.789Z,9.10
2024-02-19T06:21:10.676Z,9.10
2024-02-19T06:23:38.506Z,9.00
2024-02-19T06:26:06.407Z,9.10
2024-02-19T06:28:34.651Z,9.10
2024-02-19T06:31:03.892Z,9.20
2024-02-19T06:33:31.816Z,9.20
2024-02-19T06:35:59.703Z,9.20
2024-02-19T06:38:27.587Z,9.20
2024-02-19T06:40:57.243Z,9.10
2024-02-19T06:43:25.348Z,9.00
2024-02-19T06:45:53.895Z,9.00
2024-02-19T06:48:23.271Z,9.00
2024-02-19T06:50:51.204Z,9.00
2024-02-19T06:53:19.123Z,9.00
2024-02-19T06:55:47.014Z,9.10
2024-02-19T06:58:15.030Z,9.00
2024-02-19T07:00:43.034Z,9.00
2024-02-19T07:03:10.935Z,9.10
2024-02-19T07:05:40.227Z,9.20
2024-02-19T07:08:08.666Z,9.10
2024-02-19T07:10:36.701Z,9.10
2024-02-19T07:13:04.840Z,9.10
2024-02-19T07:15:32.728Z,9.10
2024-02-19T07:18:00.647Z,9.10
2024-02-19T07:20:28.678Z,9.00
2024-02-19T07:22:57.844Z,9.10
2024-02-19T07:25:25.697Z,9.20
2024-02-19T07:27:53.597Z,9.20
2024-02-19T07:30:21.496Z,9.30
2024-02-19T07:32:49.448Z,9.30
2024-02-19T07:35:17.533Z,9.40
2024-02-19T07:37:45.394Z,9.40
2024-02-19T07:40:14.674Z,9.40
2024-02-19T07:42:42.559Z,9.50
2024-02-19T07:45:11.042Z,9.60
2024-02-19T07:47:39.039Z,9.60
2024-02-19T07:50:07.582Z,9.70
2024-02-19T07:52:35.503Z,9.70
2024-02-19T07:55:03.420Z,9.70
2024-02-19T07:57:32.634Z,9.70
2024-02-19T08:00:00.609Z,9.80
2024-02-19T08:02:28.593Z,9.80
2024-02-19T08:04:56.607Z,9.90
2024-02-19T08:07:24.718Z,10.00
2024-02-19T08:09:52.562Z,10.00
2024-02-19T08:12:20.490Z,10.10
2024-02-19T08:14:49.767Z,10.10
2024-02-19T08:17:18.423Z,10.10
2024-02-19T08:19:46.368Z,10.10
2024-02-19T08:22:14.285Z,10.10
2024-02-19T08:24:42.135Z,10.10
2024-02-19T08:27:10.003Z,10.10
2024-02-19T08:29:37.825Z,10.20
2024-02-19T08:32:08.019Z,10.20
2024-02-19T08:34:35.996Z,10.10
2024-02-19T08:37:03.967Z,10.20
2024-02-19T08:39:32.001Z,10.20
2024-02-19T08:42:00.068Z,10.20
2024-02-19T08:44:27.851Z,10.20
2024-02-19T08:46:55.665Z,10.20
2024-02-19T08:49:26.625Z,10.20
2024-02-19T08:51:54.548Z,10.20
2024-02-19T08:54:22.364Z,10.20
2024-02-19T08:56:50.156Z,10.20
2024-02-19T08:59:18.002Z,10.20
2024-02-19T09:01:46.061Z,10.30
2024-02-19T09:04:14.122Z,10.30
2024-02-19T09:06:43.524Z,10.40
2024-02-19T09:09:11.578Z,10.60
2024-02-19T09:11:39.432Z,10.60
2024-02-19T09:14:07.300Z,10.70
2024-02-19T09:16:35.343Z,10.70
2024-02-19T09:19:06.838Z,10.70
2024-02-19T09:21:34.923Z,10.70
2024-02-19T09:24:04.250Z,10.70
2024-02-19T09:26:32.040Z,10.70
2024-02-19T09:28:59.864Z,10.70
2024-02-19T09:31:27.897Z,10.60
2024-02-19T09:33:55.978Z,10.60
2024-02-19T09:36:23.890Z,10.50
2024-02-19T09:38:52.242Z,10.50
2024-02-19T09:41:21.869Z,10.50
2024-02-19T09:43:50.202Z,10.50
2024-02-19T09:46:20.338Z,10.50
2024-02-19T09:48:50.326Z,10.40
2024-02-19T09:51:29.428Z,10.40
2024-02-19T09:54:01.898Z,10.40
2024-02-19T09:56:31.452Z,10.40
2024-02-19T09:58:59.462Z,10.40
2024-02-19T10:01:27.493Z,10.50
2024-02-19T10:03:56.433Z,10.50
2024-02-19T10:06:32.278Z,10.60
2024-02-19T10:09:01.768Z,10.60
2024-02-19T10:11:31.057Z,10.50
2024-02-19T10:13:58.910Z,10.50
2024-02-19T10:16:26.802Z,10.50
2024-02-19T10:19:05.607Z,10.60
2024-02-19T10:21:33.687Z,10.70
2024-02-19T10:24:02.009Z,10.60
2024-02-19T10:26:31.255Z,10.70
2024-02-19T10:28:59.244Z,10.60
2024-02-19T10:31:29.225Z,10.70
2024-02-19T10:33:57.441Z,10.70
2024-02-19T10:36:26.148Z,10.60
2024-02-19T10:38:54.181Z,10.60
2024-02-19T10:41:24.432Z,10.80
2024-02-19T10:43:53.936Z,10.80
2024-02-19T10:46:23.463Z,10.80
2024-02-19T10:48:53.644Z,10.80
2024-02-19T10:51:22.607Z,10.90
2024-02-19T10:54:00.514Z,10.90
2024-02-19T10:56:36.462Z,10.90
2024-02-19T10:59:06.548Z,11.00
2024-02-19T11:01:44.296Z,11.10
2024-02-19T11:04:13.706Z,11.20
2024-02-19T11:06:41.864Z,11.40
2024-02-19T11:09:13.619Z,11.70
2024-02-19T11:11:48.249Z,12.00
2024-02-19T11:14:22.468Z,12.50
2024-02-19T11:16:50.677Z,12.90
2024-02-19T11:19:19.359Z,13.10
2024-02-19T11:21:47.781Z,13.60
2024-02-19T11:24:15.660Z,13.40
2024-02-19T11:26:43.766Z,13.40
2024-02-19T11:29:15.467Z,13.50
2024-02-19T11:31:45.284Z,13.50
2024-02-19T11:34:15.825Z,13.70
2024-02-19T11:36:44.286Z,13.70
2024-02-19T11:39:12.144Z,13.80
2024-02-19T11:41:40.120Z,13.80
2024-02-19T11:44:08.081Z,13.70
2024-02-19T11:46:36.393Z,13.80
2024-02-19T11:49:05.694Z,14.10
2024-02-19T11:51:36.080Z,14.30
2024-02-19T11:54:04.133Z,14.80
2024-02-19T11:56:42.714Z,15.30
2024-02-19T11:59:11.209Z,15.50
2024-02-19T12:01:39.349Z,15.40
2024-02-19T12:04:08.679Z,15.40
2024-02-19T12:06:38.438Z,15.50
2024-02-19T12:09:08.856Z,15.50
2024-02-19T12:11:36.894Z,15.50
2024-02-19T12:14:05.343Z,15.60
2024-02-19T12:16:33.411Z,15.90
2024-02-19T12:19:01.954Z,16.10
2024-02-19T12:21:31.449Z,16.10
2024-02-19T12:23:59.304Z,16.20
2024-02-19T12:26:27.345Z,16.10
2024-02-19T12:28:55.261Z,16.10
2024-02-19T12:31:23.517Z,15.90
2024-02-19T12:33:51.546Z,15.90
2024-02-19T12:36:19.569Z,15.40
2024-02-19T12:38:51.626Z,15.20
2024-02-19T12:41:19.828Z,15.20
2024-02-19T12:43:48.166Z,15.00
2024-02-19T12:46:17.142Z,14.70
2024-02-19T12:48:45.304Z,14.60
2024-02-19T12:51:16.346Z,14.50
2024-02-19T12:53:45.156Z,14.40
2024-02-19T12:56:14.444Z,14.30
2024-02-19T12:58:42.259Z,14.10
2024-02-19T13:01:20.657Z,14.10
2024-02-19T13:03:55.941Z,14.00
2024-02-19T13:06:23.878Z,14.00
2024-02-19T13:08:51.739Z,13.90
2024-02-19T13:11:21.044Z,13.80
2024-02-19T13:13:48.964Z,13.80
2024-02-19T13:16:17.157Z,13.80
2024-02-19T13:18:45.204Z,14.00
2024-02-19T13:21:13.222Z,14.10
2024-02-19T13:23:41.193Z,14.20
2024-02-19T13:26:11.434Z,14.30
2024-02-19T13:28:40.666Z,14.20
2024-02-19T13:31:08.573Z,14.30
2024-02-19T13:33:36.787Z,14.30
2024-02-19T13:36:06.485Z,14.50
2024-02-19T13:38:34.434Z,14.50
2024-02-19T13:41:04.595Z,14.40
2024-02-19T13:43:33.746Z,14.30
2024-02-19T13:46:05.896Z,14.20
2024-02-19T13:48:34.657Z,13.80
2024-02-19T13:51:03.549Z,13.70
2024-02-19T13:53:33.350Z,13.60
2024-02-19T13:56:04.753Z,13.60
2024-02-19T13:58:33.318Z,13.50
2024-02-19T14:01:05.536Z,13.40
2024-02-19T14:03:35.080Z,13.30
2024-02-19T14:06:03.161Z,13.20
2024-02-19T14:08:31.105Z,13.10
2024-02-19T14:11:00.410Z,13.10
2024-02-19T14:13:28.599Z,13.10
2024-02-19T14:15:57.324Z,13.10
2024-02-19T14:18:26.179Z,13.10
2024-02-19T14:20:57.937Z,13.10
2024-02-19T14:23:26.035Z,13.00
2024-02-19T14:25:53.944Z,12.90
2024-02-19T14:28:22.201Z,13.00
2024-02-19T14:30:50.664Z,13.10
2024-02-19T14:33:18.576Z,13.20
2024-02-19T14:35:47.334Z,13.20
2024-02-19T14:38:16.775Z,13.20
2024-02-19T14:40:44.824Z,13.10
2024-02-19T14:43:12.975Z,13.00
2024-02-19T14:45:40.818Z,13.00
2024-02-19T14:48:10.092Z,13.00
2024-02-19T14:50:38.801Z,12.90
2024-02-19T14:53:06.814Z,12.90
2024-02-19T14:55:36.097Z,12.80
2024-02-19T14:58:05.778Z,12.80
2024-02-19T15:00:36.279Z,12.80
2024-02-19T15:03:05.486Z,12.80
2024-02-19T15:05:33.848Z,12.70
2024-02-19T15:08:02.512Z,12.60
2024-02-19T15:10:30.855Z,12.60
2024-02-19T15:13:00.581Z,12.60
2024-02-19T15:15:28.890Z,12.60
2024-02-19T15:17:57.130Z,12.60
2024-02-19T15:20:25.245Z,12.60
2024-02-19T15:22:53.164Z,12.60
2024-02-19T15:25:21.804Z,12.60
2024-02-19T15:27:49.977Z,12.50
2024-02-19T15:30:20.575Z,12.50
2024-02-19T15:32:48.980Z,12.50
2024-02-19T15:35:17.220Z,12.50
2024-02-19T15:37:45.219Z,12.40
2024-02-19T15:40:13.057Z,12.40
2024-02-19T15:42:40.915Z,12.40
2024-02-19T15:45:09.214Z,12.40
2024-02-19T15:47:38.403Z,12.40
2024-02-19T15:50:08.548Z,12.30
2024-02-19T15:52:36.662Z,12.30
2024-02-19T15:55:06.752Z,12.30
2024-02-19T15:57:34.804Z,12.20
2024-02-19T16:00:02.764Z,12.20
2024-02-19T16:02:30.987Z,12.20
2024-02-19T16:05:00.261Z,12.10
2024-02-19T16:07:29.105Z,12.00
2024-02-19T16:09:57.020Z,11.90
2024-02-19T16:12:24.895Z,11.80
2024-02-19T16:14:52.847Z,11.90
2024-02-19T16:17:21.182Z,11.80
2024-02-19T16:19:49.165Z,11.70
2024-02-19T16:22:18.493Z,11.60
2024-02-19T16:24:46.351Z,11.50
2024-02-19T16:27:14.211Z,11.40
2024-02-19T16:29:42.651Z,11.40
2024-02-19T16:32:10.969Z,11.40
2024-02-19T16:34:38.941Z,11.30
2024-02-19T16:37:06.824Z,11.20
2024-02-19T16:39:36.053Z,11.20
2024-02-19T16:42:06.454Z,11.30
2024-02-19T16:44:36.081Z,11.30
2024-02-19T16:47:03.956Z,11.30
2024-02-19T16:49:31.853Z,11.20
2024-02-19T16:51:59.782Z,11.20
2024-02-19T16:54:28.314Z,11.30
2024-02-19T16:56:57.478Z,11.20
2024-02-19T16:59:25.276Z,11.30
2024-02-19T17:01:53.220Z,11.20
2024-02-19T17:04:21.235Z,11.20
2024-02-19T17:06:51.375Z,11.10
2024-02-19T17:09:19.381Z,11.10
2024-02-19T17:11:47.307Z,11.00
2024-02-19T17:14:17.441Z,11.00
2024-02-19T17:16:50.339Z,11.00
2024-02-19T17:19:18.287Z,11.10
2024-02-19T17:21:46.561Z,11.10
2024-02-19T17:24:14.501Z,11.00
2024-02-19T17:26:45.255Z,11.00
2024-02-19T17:29:13.064Z,11.10
2024-02-19T17:31:43.710Z,11.00
2024-02-19T17:34:12.761Z,10.90
2024-02-19T17:36:40.704Z,11.00
2024-02-19T17:39:08.695Z,10.90
2024-02-19T17:41:37.147Z,10.70
2024-02-19T17:44:05.612Z,10.70
2024-02-19T17:46:33.522Z,10.80
2024-02-19T17:49:02.848Z,10.70
2024-02-19T17:51:30.696Z,10.60
2024-02-19T17:54:00.697Z,10.50
2024-02-19T17:56:30.240Z,10.50
2024-02-19T17:58:58.076Z,10.40
2024-02-19T18:01:27.305Z,10.30
2024-02-19T18:03:55.794Z,10.30
2024-02-19T18:06:25.152Z,10.30
2024-02-19T18:08:53.189Z,10.20
2024-02-19T18:11:21.230Z,10.30
2024-02-19T18:13:49.048Z,10.30
2024-02-19T18:16:17.868Z,10.30
2024-02-19T18:18:46.251Z,10.30
2024-02-19T18:21:14.241Z,10.40
2024-02-19T18:23:43.413Z,10.30
2024-02-19T18:26:12.893Z,10.30
2024-02-19T18:28:41.220Z,10.30
2024-02-19T18:31:11.503Z,10.30
2024-02-19T18:33:39.578Z,10.40
2024-02-19T18:36:08.009Z,10.30
2024-02-19T18:38:39.692Z,10.20
2024-02-19T18:41:09.099Z,10.20
2024-02-19T18:43:37.065Z,10.30
2024-02-19T18:46:05.144Z,10.40
2024-02-19T18:48:35.244Z,10.40
2024-02-19T18:51:05.144Z,10.40
2024-02-19T18:53:33.158Z,10.40
2024-02-19T18:56:03.122Z,10.40
2024-02-19T18:58:32.557Z,10.40
2024-02-19T19:01:01.264Z,10.40
2024-02-19T19:03:29.344Z,10.40
2024-02-19T19:05:59.839Z,10.40
2024-02-19T19:08:28.165Z,10.40
2024-02-19T19:10:56.074Z,10.40
2024-02-19T19:13:24.080Z,10.40
2024-02-19T19:15:54.578Z,10.40
2024-02-19T19:18:22.990Z,10.30
2024-02-19T19:20:51.429Z,10.30
2024-02-19T19:23:19.334Z,10.30
2024-02-19T19:25:47.168Z,10.30
2024-02-19T19:28:15.595Z,10.30
2024-02-19T19:30:44.436Z,10.30
2024-02-19T19:33:14.815Z,10.30
2024-02-19T19:35:44.844Z,10.30
2024-02-19T19:38:12.827Z,10.30
2024-02-19T19:40:40.786Z,10.40
2024-02-19T19:43:08.766Z,10.30
2024-02-19T19:45:36.716Z,10.30
2024-02-19T19:48:05.421Z,10.30
2024-02-19T19:50:34.649Z,10.20
2024-02-19T19:53:02.675Z,10.20
2024-02-19T19:55:30.610Z,10.20
2024-02-19T19:58:00.216Z,10.30
2024-02-19T20:00:28.788Z,10.20
2024-02-19T20:02:57.977Z,10.30
2024-02-19T20:05:25.933Z,10.20
2024-02-19T20:07:55.222Z,10.20
2024-02-19T20:10:23.152Z,10.20
2024-02-19T20:12:51.531Z,10.20
2024-02-19T20:15:19.402Z,10.00
2024-02-19T20:17:47.278Z,10.00
2024-02-19T20:20:15.328Z,10.10
2024-02-19T20:22:43.234Z,10.10
2024-02-19T20:25:12.910Z,10.10
2024-02-19T20:27:40.811Z,10.10
2024-02-19T20:30:12.060Z,10.10
2024-02-19T20:32:40.145Z,10.00
2024-02-19T20:35:08.783Z,10.00
2024-02-19T20:37:36.715Z,10.10
2024-02-19T20:40:05.982Z,10.10
2024-02-19T20:42:35.910Z,10.10
2024-02-19T20:45:03.840Z,10.00
2024-02-19T20:47:31.749Z,10.00
2024-02-19T20:50:00.870Z,10.00
2024-02-19T20:52:29.016Z,9.90
2024-02-19T20:54:57.031Z,9.90
2024-02-19T20:57:25.674Z,9.90
2024-02-19T20:59:55.103Z,9.90
2024-02-19T21:02:23.080Z,9.90
2024-02-19T21:04:50.971Z,10.00
2024-02-19T21:07:18.950Z,9.90
2024-02-19T21:09:46.906Z,10.00
2024-02-19T21:12:14.834Z,10.00
2024-02-19T21:14:42.790Z,9.90
2024-02-19T21:17:11.943Z,9.90
2024-02-19T21:19:39.814Z,9.90
2024-02-19T21:22:07.829Z,9.90
2024-02-19T21:24:35.763Z,9.90
2024-02-19T21:27:03.579Z,9.90
2024-02-19T21:29:31.614Z,9.80
2024-02-19T21:31:59.825Z,9.80
2024-02-19T21:34:29.364Z,9.80
2024-02-19T21:36:58.326Z,9.80
2024-02-19T21:39:26.837Z,9.80
2024-02-19T21:41:54.738Z,9.90
2024-02-19T21:44:23.108Z,9.90
2024-02-19T21:46:50.977Z,9.90
2024-02-19T21:49:21.129Z,9.90
2024-02-19T21:51:50.626Z,9.90
2024-02-19T21:54:18.490Z,9.90
2024-02-19T21:56:46.392Z,9.80
2024-02-19T21:59:14.266Z,9.90
2024-02-19T22:01:42.264Z,9.90
2024-02-19T22:04:10.509Z,9.90
2024-02-19T22:06:38.380Z,9.90
2024-02-19T22:09:07.730Z,9.90
2024-02-19T22:11:36.808Z,9.80
2024-02-19T22:14:05.147Z,9.70
2024-02-19T22:16:33.071Z,9.70
2024-02-19T22:19:01.028Z,9.70
2024-02-19T22:21:31.496Z,9.70
2024-02-19T22:23:59.379Z,9.60
2024-02-19T22:26:28.526Z,9.60
2024-02-19T22:28:56.338Z,9.60
2024-02-19T22:31:24.563Z,9.50
2024-02-19T22:33:52.537Z,9.60
2024-02-19T22:36:20.436Z,9.50
2024-02-19T22:38:48.347Z,9.50
2024-02-19T22:41:16.166Z,9.50
2024-02-19T22:43:45.337Z,9.60
2024-02-19T22:46:13.203Z,9.60
2024-02-19T22:48:41.109Z,9.50
2024-02-19T22:51:09.210Z,9.50
2024-02-19T22:53:37.535Z,9.60
2024-02-19T22:56:06.080Z,9.50
2024-02-19T22:58:35.982Z,9.50
2024-02-19T23:01:06.267Z,9.50
2024-02-19T23:03:34.343Z,9.50
2024-02-19T23:06:02.264Z,9.50
2024-02-19T23:08:30.145Z,9.50
2024-02-19T23:10:58.096Z,9.40
2024-02-19T23:13:26.035Z,9.40
2024-02-19T23:15:53.888Z,9.40
2024-02-19T23:18:23.892Z,9.40
2024-02-19T23:20:51.757Z,9.40
2024-02-19T23:23:19.612Z,9.40
2024-02-19T23:25:51.831Z,9.40
2024-02-19T23:28:19.711Z,9.40
2024-02-19T23:30:47.665Z,9.40
2024-02-19T23:33:15.645Z,9.40
2024-02-19T23:35:44.891Z,9.40
2024-02-19T23:38:13.762Z,9.40
2024-02-19T23:40:41.679Z,9.30
2024-02-19T23:43:09.628Z,9.30
2024-02-19T23:45:37.459Z,9.40
2024-02-19T23:48:05.589Z,9.40
2024-02-19T23:50:33.655Z,9.30
2024-02-19T23:53:02.971Z,9.30
2024-02-19T23:55:30.856Z,9.30
2024-02-19T23:57:59.224Z,9.30
